Claremorris, Ireland
Current Conditions -  °F | °C
As of 5:00 PM on Saturday 22 Nov 2014 (Local Time) from EIKN Reporting Station
Scattered Clouds Scattered Clouds  
Wind Chill: 37°   Ceiling: Unl
Heat Index: 43°   Visibility: 6mi
Dew Point: 36°   Wind: 9mph
Humidity: 76%   Direction: 280°W
Pressure: 29.91"   Gusts: NA
Location:  53.73°N, 9.01°W
Report Text: EIKN 221700Z 28008KT 9999 FEW020CB SCT025 06/02 Q1013 NOSIG
Loading
Personal Weather Stations






























Interactive Weather Map New forecast layout! Learn more

10-Day Weather Forecast

Advertisements
Track Severe Weather on mobile